Time;durP1;ratioP1;P1;durP2;ratioP2;P2;SDS_P1;SDS_P2;PMS_P1;PMS_P2;Temp;Humidity;BMP_temperature;BMP_pressure;BME280_temperature;BME280_humidity;BME280_pressure;Samples;Min_cycle;Max_cycle;Signal;HPM_P1;HPM_P2
2023/01/18 00:02:19;;;;;;;10.50;5.72;;;1.20;99.90;;;0.70;100.00;98452.22;5163711;28;20047;-71
2023/01/18 00:04:51;;;;;;;12.30;5.20;;;1.10;99.90;;;0.66;100.00;98459.78;5163323;28;20034;-70
2023/01/18 00:07:25;;;;;;;11.05;4.40;;;1.10;99.90;;;0.64;100.00;98462.25;5161924;28;20086;-70
2023/01/18 00:09:58;;;;;;;12.15;5.00;;;1.10;99.90;;;0.63;100.00;98462.22;5177608;28;20077;-71
2023/01/18 00:12:32;;;;;;;10.35;4.38;;;1.00;99.90;;;0.61;100.00;98457.03;5163379;28;20076;-71
2023/01/18 00:15:06;;;;;;;8.48;4.40;;;1.00;99.90;;;0.62;100.00;98457.91;5163157;28;20042;-71
2023/01/18 00:17:46;;;;;;;10.25;5.03;;;1.00;99.90;;;0.61;100.00;98462.16;5163727;28;20052;-70
2023/01/18 00:20:21;;;;;;;9.70;4.93;;;1.00;99.90;;;0.60;100.00;98455.28;5163214;28;20046;-70
2023/01/18 00:22:53;;;;;;;10.52;4.65;;;1.00;99.90;;;0.58;100.00;98451.78;5163288;28;20053;-71
2023/01/18 00:25:29;;;;;;;12.65;5.13;;;1.00;99.90;;;0.58;100.00;98456.91;5162222;28;20513;-70
2023/01/18 00:28:01;;;;;;;11.20;4.82;;;1.00;99.90;;;0.59;100.00;98458.69;5162782;28;20058;-70
2023/01/18 00:30:33;;;;;;;10.82;5.20;;;1.00;99.90;;;0.61;100.00;98462.16;5162675;28;20444;-71
2023/01/18 00:33:05;;;;;;;9.50;4.32;;;1.00;99.90;;;0.62;100.00;98466.47;5163115;28;20137;-71
2023/01/18 00:35:37;;;;;;;10.52;4.72;;;1.00;99.90;;;0.61;100.00;98463.84;5163227;28;20360;-71
2023/01/18 00:38:11;;;;;;;9.65;4.63;;;1.00;99.90;;;0.58;100.00;98471.41;5162632;28;20142;-71
2023/01/18 00:40:46;;;;;;;9.98;4.10;;;1.00;99.90;;;0.51;100.00;98476.31;5162332;28;20077;-70
2023/01/18 00:46:12;;;;;;;9.48;5.13;;;0.90;99.90;;;0.51;100.00;98478.00;5162903;28;20177;-71
2023/01/18 00:48:44;;;;;;;10.73;5.05;;;0.90;99.90;;;0.49;100.00;98479.66;5162705;28;20051;-70
2023/01/18 00:51:19;;;;;;;10.18;4.90;;;0.90;99.90;;;0.50;100.00;98478.84;5162497;28;20042;-70
2023/01/18 00:53:52;;;;;;;9.77;4.13;;;0.90;99.90;;;0.48;100.00;98483.03;5163030;28;20046;-71
2023/01/18 00:56:25;;;;;;;11.60;4.75;;;0.90;99.90;;;0.44;100.00;98478.59;5162750;28;20053;-70
2023/01/18 00:58:58;;;;;;;11.02;4.50;;;0.90;99.90;;;0.41;100.00;98479.38;5161117;28;20057;-71
2023/01/18 01:01:30;;;;;;;9.75;5.13;;;0.80;99.90;;;0.35;100.00;98478.25;5162405;28;20513;-71
2023/01/18 01:06:52;;;;;;;10.15;5.07;;;0.70;99.90;;;0.28;100.00;98491.66;5162039;28;20153;-71
2023/01/18 01:09:27;;;;;;;10.43;4.82;;;0.70;99.90;;;0.26;100.00;98489.91;5162599;28;20030;-70
2023/01/18 01:26:13;;;;;;;11.48;4.88;;;0.60;99.90;;;0.24;100.00;98500.91;5163194;28;20074;-70
2023/01/18 01:28:51;;;;;;;11.32;5.00;;;0.70;99.90;;;0.29;100.00;98498.53;5162182;28;20419;-70
2023/01/18 01:31:25;;;;;;;10.00;4.50;;;0.70;99.90;;;0.31;100.00;98492.63;5161465;28;20410;-70
2023/01/18 01:33:57;;;;;;;10.95;4.50;;;0.70;99.90;;;0.32;100.00;98498.63;5162700;28;20047;-70
2023/01/18 01:36:29;;;;;;;14.30;5.53;;;0.70;99.90;;;0.30;100.00;98493.44;5162739;28;20049;-70
2023/01/18 01:39:02;;;;;;;9.38;4.68;;;0.70;99.90;;;0.27;100.00;98503.59;5165805;28;20052;-71
2023/01/18 01:41:35;;;;;;;10.50;5.15;;;0.70;99.90;;;0.24;100.00;98506.03;5165859;28;20050;-71
2023/01/18 01:44:46;;;;;;;11.85;4.78;;;0.70;99.90;;;0.24;100.00;98508.59;5180878;28;20061;-71
2023/01/18 01:47:35;;;;;;;10.70;5.47;;;0.70;99.90;;;0.23;100.00;98507.72;5166070;28;20046;-71
2023/01/18 01:50:18;;;;;;;11.52;4.85;;;0.70;99.90;;;0.23;100.00;98510.28;5166115;28;20042;-71
2023/01/18 01:52:51;;;;;;;14.00;5.32;;;0.70;99.90;;;0.23;100.00;98517.97;5166486;28;20050;-70
2023/01/18 01:55:27;;;;;;;14.13;5.10;;;0.70;99.90;;;0.22;100.00;98523.91;5166247;28;20049;-71
2023/01/18 01:58:05;;;;;;;13.02;5.00;;;0.70;99.90;;;0.19;100.00;98523.78;5164456;28;20057;-70
2023/01/18 02:00:38;;;;;;;11.93;4.57;;;0.60;99.90;;;0.16;100.00;98518.53;5164509;28;20062;-70
2023/01/18 02:03:15;;;;;;;11.95;4.82;;;0.60;99.90;;;0.14;100.00;98517.63;5165598;28;20403;-70
2023/01/18 02:05:52;;;;;;;13.77;4.72;;;0.60;99.90;;;0.11;100.00;98522.59;5165580;28;20101;-71
2023/01/18 02:08:26;;;;;;;11.10;4.47;;;0.60;99.90;;;0.09;100.00;98529.38;5165390;28;20058;-70
2023/01/18 02:10:58;;;;;;;10.23;4.45;;;0.60;99.90;;;0.06;100.00;98531.78;5164323;28;20401;-70
2023/01/18 02:13:30;;;;;;;9.48;5.07;;;0.50;99.90;;;0.04;100.00;98533.41;5165392;28;20268;-71
2023/01/18 02:16:13;;;;;;;10.77;4.70;;;0.50;99.90;;;0.02;100.00;98535.06;5180391;28;20069;-70
2023/01/18 02:18:55;;;;;;;8.95;4.45;;;0.50;99.90;;;-0.02;100.00;98536.59;5165045;28;20589;-70
2023/01/18 02:21:34;;;;;;;9.98;4.93;;;0.40;99.90;;;-0.04;100.00;98539.94;5164002;28;20054;-71
2023/01/18 02:24:53;;;;;;;8.82;3.97;;;0.40;99.90;;;-0.06;100.00;98536.44;5163927;28;20400;-70
2023/01/18 02:27:28;;;;;;;12.98;4.65;;;0.40;99.90;;;-0.09;100.00;98537.19;5165308;28;20130;-70
2023/01/18 02:30:13;;;;;;;11.20;4.55;;;0.30;99.90;;;-0.10;100.00;98539.69;5179415;28;20046;-70
2023/01/18 02:33:06;;;;;;;8.50;4.55;;;0.40;99.90;;;-0.10;100.00;98539.69;5164894;28;20047;-70
2023/01/18 02:35:49;;;;;;;10.77;5.03;;;0.40;99.90;;;-0.12;100.00;98542.19;5165014;28;20042;-70
2023/01/18 02:38:24;;;;;;;11.38;4.88;;;0.30;99.90;;;-0.15;100.00;98548.84;5165207;28;20053;-70
2023/01/18 02:41:14;;;;;;;10.45;4.93;;;0.30;99.90;;;-0.15;100.00;98556.53;5164165;28;20046;-70
2023/01/18 02:46:43;;;;;;;11.40;4.82;;;0.30;99.90;;;-0.18;100.00;98556.44;5164494;28;20042;-70
2023/01/18 02:49:26;;;;;;;8.98;4.80;;;0.30;99.90;;;-0.17;100.00;98568.41;5163650;28;20053;-70
2023/01/18 02:52:01;;;;;;;9.95;4.38;;;0.30;99.90;;;-0.19;100.00;98570.03;5164762;28;20265;-70
2023/01/18 02:54:39;;;;;;;11.55;4.88;;;0.30;99.90;;;-0.20;100.00;98570.81;5164802;28;20503;-71
2023/01/18 02:57:15;;;;;;;10.52;4.70;;;0.30;99.90;;;-0.20;100.00;98564.00;5164948;28;20537;-70
2023/01/18 02:59:53;;;;;;;11.77;5.55;;;0.20;99.90;;;-0.19;100.00;98567.47;5164211;28;20050;-70
2023/01/18 03:02:29;;;;;;;12.25;5.35;;;0.30;99.90;;;-0.15;100.00;98574.47;5173596;23;20058;-65
2023/01/18 03:05:02;;;;;;;10.63;4.93;;;0.30;99.90;;;-0.14;100.00;98573.66;5143035;28;20053;-66
2023/01/18 03:07:41;;;;;;;10.68;5.50;;;0.30;99.90;;;-0.16;100.00;98565.03;5152661;28;20049;-65
2023/01/18 03:10:15;;;;;;;11.18;4.72;;;0.30;99.90;;;-0.18;100.00;98577.78;5164181;28;20058;-65
2023/01/18 03:12:58;;;;;;;10.88;5.10;;;0.30;99.90;;;-0.21;100.00;98571.63;5164760;28;20085;-65
2023/01/18 03:15:40;;;;;;;9.63;5.07;;;0.20;99.90;;;-0.25;100.00;98574.91;5163346;28;20046;-66
2023/01/18 03:18:23;;;;;;;9.07;4.85;;;0.20;99.90;;;-0.26;100.00;98579.16;5163309;28;20038;-66
2023/01/18 03:20:57;;;;;;;11.65;4.75;;;0.20;99.90;;;-0.28;100.00;98576.50;5156354;28;20084;-66
2023/01/18 03:23:40;;;;;;;11.20;5.38;;;0.20;99.90;;;-0.27;100.00;98583.38;5164375;28;20050;-66
2023/01/18 03:26:17;;;;;;;10.80;4.95;;;0.20;99.90;;;-0.26;100.00;98581.72;5162782;28;20053;-65
2023/01/18 03:34:51;;;;;;;8.68;4.22;;;0.20;99.90;;;-0.29;100.00;98582.44;5164052;28;20408;-66
2023/01/18 03:37:29;;;;;;;8.15;4.00;;;0.20;99.90;;;-0.33;100.00;98580.59;5164007;28;20038;-65
2023/01/18 03:40:06;;;;;;;10.18;4.43;;;0.20;99.90;;;-0.36;100.00;98582.13;5163669;28;20050;-66
2023/01/18 03:42:49;;;;;;;10.13;4.38;;;0.10;99.90;;;-0.37;100.00;98588.06;5162793;28;20043;-66
2023/01/18 03:45:28;;;;;;;10.25;4.57;;;0.10;99.90;;;-0.36;100.00;98592.38;5163954;28;20042;-65
2023/01/18 03:48:01;;;;;;;10.25;4.95;;;0.10;99.90;;;-0.37;100.00;98596.59;5162183;28;20414;-66
2023/01/18 03:50:44;;;;;;;9.55;4.05;;;0.10;99.90;;;-0.32;100.00;98594.25;5163727;28;20049;-66
2023/01/18 03:53:26;;;;;;;10.38;4.80;;;0.10;99.90;;;-0.30;100.00;98600.31;5164028;28;20511;-65
2023/01/18 03:56:05;;;;;;;9.93;4.82;;;0.10;99.90;;;-0.30;100.00;98595.19;5163698;28;20046;-66
2023/01/18 03:58:37;;;;;;;8.75;4.25;;;0.20;99.90;;;-0.33;100.00;98607.84;5163634;28;20046;-66
2023/01/18 04:01:10;;;;;;;8.02;4.40;;;0.10;99.90;;;-0.36;100.00;98612.84;5162170;28;20057;-66
2023/01/18 04:03:42;;;;;;;9.88;3.97;;;0.10;99.90;;;-0.39;100.00;98613.59;5162404;28;20060;-66
2023/01/18 04:06:15;;;;;;;9.38;5.05;;;0.10;99.90;;;-0.42;100.00;98612.56;5163400;28;20399;-65
2023/01/18 04:08:48;;;;;;;10.30;5.35;;;0.10;99.90;;;-0.43;100.00;98618.50;5163473;28;20138;-65
2023/01/18 04:11:21;;;;;;;7.80;4.13;;;0.00;99.90;;;-0.42;100.00;98612.56;5163535;28;20057;-66
2023/01/18 04:13:53;;;;;;;10.35;4.45;;;0.10;99.90;;;-0.41;100.00;98633.09;5163285;28;20049;-66
2023/01/18 04:16:25;;;;;;;8.85;4.72;;;0.10;99.90;;;-0.44;100.00;98624.44;5163324;28;20114;-66
2023/01/18 04:18:57;;;;;;;7.90;4.25;;;0.10;99.90;;;-0.47;100.00;98635.41;5163111;28;20039;-66
2023/01/18 04:21:32;;;;;;;8.68;4.03;;;0.00;99.90;;;-0.49;100.00;98642.16;5163676;28;20048;-66
2023/01/18 04:24:05;;;;;;;9.00;4.25;;;0.00;99.90;;;-0.51;100.00;98648.03;5163394;28;20050;-66
2023/01/18 04:26:37;;;;;;;7.82;3.47;;;-0.10;99.90;;;-0.53;100.00;98647.94;5163094;28;20049;-65
2023/01/18 04:29:09;;;;;;;9.23;5.03;;;-0.10;99.90;;;-0.55;100.00;98652.97;5162985;28;20054;-65
2023/01/18 04:31:42;;;;;;;9.75;4.03;;;-0.10;99.90;;;-0.54;100.00;98653.84;5162949;28;20054;-66
2023/01/18 04:34:14;;;;;;;9.93;3.95;;;-0.10;99.90;;;-0.54;100.00;98658.97;5163245;28;20415;-66
2023/01/18 04:36:48;;;;;;;8.98;4.00;;;-0.10;99.90;;;-0.55;100.00;98647.88;5161795;28;20057;-66
2023/01/18 04:39:21;;;;;;;10.45;4.97;;;-0.10;99.90;;;-0.56;100.00;98652.94;5163016;28;20042;-66
2023/01/18 04:41:53;;;;;;;8.13;3.92;;;-0.10;99.90;;;-0.57;100.00;98648.63;5163081;28;20101;-66
2023/01/18 04:44:25;;;;;;;8.70;4.10;;;-0.10;99.90;;;-0.57;100.00;98658.84;5163208;28;20054;-66
2023/01/18 04:46:58;;;;;;;9.52;4.15;;;-0.10;99.90;;;-0.59;100.00;98663.91;5163310;28;20042;-65
2023/01/18 04:49:30;;;;;;;9.90;4.50;;;-0.10;99.90;;;-0.58;100.00;98659.66;5162853;28;20050;-64
2023/01/18 04:52:05;;;;;;;13.48;7.10;;;-0.10;99.90;;;-0.60;100.00;98653.59;5162998;28;20111;-66
2023/01/18 04:54:37;;;;;;;;;;;-0.10;99.90;;;-0.55;100.00;98663.22;5163280;28;20145;-66
2023/01/18 04:57:09;;;;;;;11.43;4.88;;;-0.10;99.90;;;-0.50;100.00;98668.56;5162833;28;19930;-66
2023/01/18 04:59:44;;;;;;;9.05;4.78;;;0.00;99.90;;;-0.48;100.00;98669.47;5162916;28;20415;-65
2023/01/18 05:02:17;;;;;;;7.97;4.40;;;0.00;99.90;;;-0.48;100.00;98674.59;5162820;28;20129;-65
2023/01/18 05:04:49;;;;;;;10.15;4.22;;;0.00;99.90;;;-0.49;100.00;98677.09;5163023;28;20245;-66
2023/01/18 05:07:25;;;;;;;6.75;3.92;;;0.00;99.90;;;-0.50;100.00;98683.91;5162604;28;20046;-66
2023/01/18 05:09:57;;;;;;;8.73;4.03;;;0.00;99.90;;;-0.51;100.00;98679.59;5161635;28;20047;-65
2023/01/18 05:12:32;;;;;;;12.02;4.50;;;0.00;99.90;;;-0.52;100.00;98688.09;5164781;28;20046;-65
2023/01/18 05:15:06;;;;;;;8.43;3.95;;;0.00;99.90;;;-0.53;100.00;98695.69;5165617;28;20050;-66
2023/01/18 05:17:38;;;;;;;9.00;4.50;;;0.00;99.90;;;-0.55;100.00;98693.06;5167053;28;20046;-66
2023/01/18 05:20:12;;;;;;;9.90;3.95;;;-0.10;99.90;;;-0.56;100.00;98710.09;5166498;28;20050;-65
2023/01/18 05:22:45;;;;;;;9.65;4.25;;;-0.10;99.90;;;-0.56;100.00;98704.09;5166800;28;20047;-65
2023/01/18 05:25:17;;;;;;;8.32;3.97;;;-0.10;99.90;;;-0.58;100.00;98723.63;5166377;28;20050;-65
2023/01/18 05:27:49;;;;;;;11.40;4.43;;;-0.10;99.90;;;-0.60;100.00;98715.88;5166262;28;20049;-66
2023/01/18 05:30:22;;;;;;;8.77;4.70;;;-0.10;99.90;;;-0.59;100.00;98722.78;5166127;28;20039;-66
2023/01/18 05:32:54;;;;;;;9.85;4.60;;;-0.10;99.90;;;-0.58;100.00;98724.50;5166660;28;20081;-65
2023/01/18 05:35:26;;;;;;;11.63;5.65;;;-0.10;99.90;;;-0.59;100.00;98727.88;5166256;28;20047;-66
2023/01/18 05:38:00;;;;;;;11.60;5.57;;;-0.10;99.90;;;-0.56;100.00;98734.81;5166318;28;20097;-66
2023/01/18 05:40:33;;;;;;;10.23;5.03;;;-0.10;99.90;;;-0.55;100.00;98742.56;5165977;28;20051;-66
2023/01/18 05:43:05;;;;;;;10.00;4.47;;;-0.10;99.90;;;-0.54;100.00;98748.53;5166286;28;20069;-65
2023/01/18 05:45:37;;;;;;;9.68;4.50;;;-0.10;99.90;;;-0.52;100.00;98749.50;5166254;28;20514;-65
2023/01/18 05:48:10;;;;;;;10.80;4.75;;;0.00;99.90;;;-0.52;100.00;98752.06;5166182;28;20042;-64
2023/01/18 05:50:45;;;;;;;11.88;5.03;;;0.00;99.90;;;-0.51;100.00;98755.50;5165800;28;20123;-64
2023/01/18 05:53:22;;;;;;;13.50;4.95;;;0.00;99.90;;;-0.53;100.00;98757.97;5164820;28;20058;-65
2023/01/18 05:55:56;;;;;;;12.65;4.63;;;0.00;99.90;;;-0.53;100.00;98767.34;5165994;28;20503;-65
2023/01/18 05:58:29;;;;;;;12.23;4.57;;;-0.10;99.90;;;-0.56;100.00;98768.06;5165981;28;20048;-65
2023/01/18 06:01:02;;;;;;;8.77;4.10;;;-0.10;99.90;;;-0.57;100.00;98779.13;5164570;28;20042;-65
2023/01/18 06:03:34;;;;;;;10.57;5.18;;;-0.10;99.90;;;-0.60;100.00;98777.28;5165718;28;20042;-65
2023/01/18 06:06:07;;;;;;;9.20;4.28;;;-0.10;99.90;;;-0.62;100.00;98775.47;5165692;28;20385;-64
2023/01/18 06:08:42;;;;;;;12.60;4.55;;;-0.20;99.90;;;-0.64;100.00;98789.88;5165610;28;20046;-65
2023/01/18 06:11:15;;;;;;;11.25;4.75;;;-0.20;99.90;;;-0.67;100.00;98787.16;5165536;28;20137;-64
2023/01/18 06:13:47;;;;;;;8.55;3.97;;;-0.20;99.90;;;-0.70;100.00;98792.16;5165618;28;20053;-65
2023/01/18 06:16:19;;;;;;;10.65;4.68;;;-0.20;99.90;;;-0.73;100.00;98794.56;5165734;28;20057;-64
2023/01/18 06:18:51;;;;;;;12.13;5.30;;;-0.20;99.90;;;-0.74;100.00;98797.91;5163908;28;20530;-65
2023/01/18 06:21:23;;;;;;;9.23;4.80;;;-0.30;99.90;;;-0.75;100.00;98796.16;5165594;28;20054;-65
2023/01/18 06:23:56;;;;;;;8.48;4.05;;;-0.30;99.90;;;-0.76;100.00;98800.41;5164269;28;20046;-65
2023/01/18 06:26:30;;;;;;;12.43;5.53;;;-0.30;99.90;;;-0.77;100.00;98808.03;5165284;28;20546;-64
2023/01/18 06:29:02;;;;;;;11.10;5.05;;;-0.30;99.90;;;-0.78;100.00;98813.91;5164837;28;20578;-65
2023/01/18 06:31:34;;;;;;;11.07;4.95;;;-0.30;99.90;;;-0.79;100.00;98815.59;5165312;28;20050;-65
2023/01/18 06:34:08;;;;;;;9.70;4.90;;;-0.30;99.90;;;-0.79;100.00;98823.28;5165291;28;20500;-65
2023/01/18 06:36:40;;;;;;;13.93;5.80;;;-0.30;99.90;;;-0.79;100.00;98827.50;5163842;28;20495;-65
2023/01/18 06:39:13;;;;;;;10.73;4.53;;;-0.30;99.90;;;-0.81;100.00;98824.88;5164938;28;20042;-65
2023/01/18 06:41:46;;;;;;;9.63;4.40;;;-0.30;99.90;;;-0.84;100.00;98828.19;5165154;28;20049;-65
2023/01/18 06:44:18;;;;;;;9.00;4.40;;;-0.40;99.90;;;-0.87;100.00;98833.16;5164905;28;20060;-65
2023/01/18 06:46:50;;;;;;;11.00;4.45;;;-0.40;99.90;;;-0.88;100.00;98833.94;5163477;28;20139;-65
2023/01/18 06:49:23;;;;;;;9.23;4.32;;;-0.40;99.90;;;-0.91;100.00;98836.38;5164647;28;20053;-65
2023/01/18 06:51:55;;;;;;;12.75;4.95;;;-0.40;99.90;;;-0.91;100.00;98849.16;5165152;28;20046;-64
2023/01/18 06:54:29;;;;;;;10.30;4.85;;;-0.40;99.90;;;-0.92;100.00;98849.94;5165088;28;20046;-65
2023/01/18 06:57:02;;;;;;;11.23;4.47;;;-0.40;99.90;;;-0.92;100.00;98849.06;5164569;28;20046;-65
2023/01/18 06:59:35;;;;;;;10.98;4.53;;;-0.50;99.90;;;-0.93;100.00;98862.66;5164242;28;20038;-65
2023/01/18 07:02:11;;;;;;;11.70;4.95;;;-0.40;99.90;;;-0.96;100.00;98862.53;5164525;28;20414;-65
2023/01/18 07:04:44;;;;;;;9.15;4.80;;;-0.50;99.90;;;-0.98;100.00;98872.69;5164630;28;20162;-53
2023/01/18 07:07:16;;;;;;;9.25;4.55;;;-0.50;99.90;;;-0.99;100.00;98873.47;5164247;28;20042;-53
2023/01/18 07:09:49;;;;;;;11.40;5.00;;;-0.50;99.90;;;-0.99;100.00;98878.56;5163818;28;20452;-53
2023/01/18 07:12:22;;;;;;;13.18;5.57;;;-0.50;99.90;;;-1.02;100.00;98881.00;5164198;28;20042;-53
2023/01/18 07:14:54;;;;;;;10.18;4.35;;;-0.50;99.90;;;-1.03;100.00;98886.91;5164611;28;20053;-53
2023/01/18 07:17:26;;;;;;;10.73;5.05;;;-0.50;99.90;;;-1.04;100.00;98890.28;5164123;28;20046;-53
2023/01/18 07:19:58;;;;;;;10.40;4.82;;;-0.60;99.90;;;-1.03;100.00;98886.03;5163916;28;20042;-53
2023/01/18 07:22:30;;;;;;;10.25;4.82;;;-0.60;99.90;;;-1.05;100.00;98888.50;5163898;28;20050;-53
2023/01/18 07:25:05;;;;;;;12.15;4.75;;;-0.60;99.90;;;-1.06;100.00;98891.88;5164040;28;20050;-53
2023/01/18 07:27:37;;;;;;;11.02;5.07;;;-0.60;99.90;;;-1.06;100.00;98894.41;5163244;28;20035;-53
2023/01/18 07:30:11;;;;;;;10.38;5.05;;;-0.60;99.90;;;-1.05;100.00;98897.84;5163676;28;20070;-53
2023/01/18 07:32:49;;;;;;;11.70;4.28;;;-0.60;99.90;;;-1.06;100.00;98902.09;5163714;28;20129;-54
2023/01/18 07:35:21;;;;;;;10.35;4.63;;;-0.60;99.90;;;-1.08;100.00;98903.69;5163649;28;20048;-54
2023/01/18 07:37:54;;;;;;;9.57;3.95;;;-0.60;99.90;;;-1.09;100.00;98901.94;5164874;28;20130;-54
2023/01/18 07:40:27;;;;;;;10.98;4.70;;;-0.60;99.90;;;-1.10;100.00;98895.97;5164457;28;20046;-53
2023/01/18 07:43:01;;;;;;;9.43;4.53;;;-0.60;99.90;;;-1.05;100.00;98906.41;5165029;28;20046;-53
2023/01/18 07:45:35;;;;;;;12.45;5.00;;;-0.60;99.90;;;-1.03;100.00;98920.16;5164552;28;20054;-54
2023/01/18 07:48:07;;;;;;;12.23;4.93;;;-0.50;99.90;;;-0.98;100.00;98920.38;5164313;28;20053;-53
2023/01/18 07:50:39;;;;;;;13.05;5.10;;;-0.50;99.90;;;-0.96;100.00;98924.78;5163611;28;20503;-53
2023/01/18 07:53:11;;;;;;;14.13;5.18;;;-0.50;99.90;;;-0.94;100.00;98928.28;5164138;28;20046;-53
2023/01/18 07:55:44;;;;;;;11.43;5.97;;;-0.50;99.90;;;-0.91;100.00;98933.56;5163375;28;20046;-53
2023/01/18 07:58:17;;;;;;;13.57;5.80;;;-0.50;99.90;;;-0.85;100.00;98939.00;5160932;28;20054;-53
2023/01/18 08:00:49;;;;;;;13.98;6.00;;;-0.40;99.90;;;-0.80;100.00;98940.88;5124731;28;20495;-53
2023/01/18 08:03:21;;;;;;;18.08;7.32;;;-0.40;99.90;;;-0.78;100.00;98944.38;5162009;28;20038;-53
2023/01/18 08:05:53;;;;;;;15.40;7.13;;;-0.30;99.90;;;-0.76;100.00;98948.81;5163435;28;20056;-54
2023/01/18 08:08:27;;;;;;;15.32;6.90;;;-0.30;99.90;;;-0.74;100.00;98962.53;5162949;28;20049;-53
2023/01/18 08:11:03;;;;;;;16.00;8.23;;;-0.30;99.90;;;-0.74;100.00;98962.53;5163266;28;20042;-54
2023/01/18 08:13:35;;;;;;;14.50;7.10;;;-0.30;99.90;;;-0.73;100.00;98966.84;5163143;28;20450;-54
2023/01/18 08:16:11;;;;;;;13.05;5.85;;;-0.20;99.90;;;-0.72;100.00;98966.03;5162948;28;20053;-51
2023/01/18 08:18:44;;;;;;;;;;;-0.20;99.90;;;-0.68;100.00;98969.63;5163345;28;20078;-52
2023/01/18 08:21:16;;;;;;;15.40;5.47;;;-0.20;99.90;;;-0.63;100.00;98976.75;5162830;28;19929;-52
2023/01/18 08:23:49;;;;;;;10.88;5.03;;;-0.20;99.90;;;-0.58;100.00;98980.41;5159767;28;20506;-52
2023/01/18 08:26:23;;;;;;;12.23;5.22;;;-0.10;99.90;;;-0.51;100.00;98985.84;5142815;28;20527;-52
2023/01/18 08:28:55;;;;;;;16.70;5.78;;;-0.10;99.90;;;-0.47;100.00;98982.63;5142355;28;20399;-51
2023/01/18 08:31:28;;;;;;;12.00;5.00;;;0.00;99.90;;;-0.29;100.00;98992.06;5141753;28;20229;-55
2023/01/18 08:34:01;;;;;;;10.77;5.18;;;0.20;99.90;;;0.14;100.00;98996.72;5142307;28;20074;-52
2023/01/18 08:36:33;;;;;;;14.20;6.18;;;0.60;99.90;;;0.17;100.00;99001.97;5140120;28;20046;-52
2023/01/18 08:39:06;;;;;;;13.90;6.13;;;0.60;99.90;;;0.16;100.00;99004.47;5174289;28;20529;-52
2023/01/18 08:41:40;;;;;;;9.35;4.18;;;0.60;99.90;;;0.61;100.00;99015.97;5183101;28;20038;-54
2023/01/18 08:44:12;;;;;;;12.75;5.90;;;1.30;99.90;;;1.12;100.00;99016.53;5183640;28;20550;-52
2023/01/18 08:46:44;;;;;;;17.85;7.68;;;1.60;99.90;;;1.01;100.00;99015.19;5183551;28;20045;-52
2023/01/18 08:49:16;;;;;;;17.02;6.88;;;1.60;99.90;;;0.85;100.00;99023.91;5187071;28;20068;-52
2023/01/18 08:51:48;;;;;;;18.02;8.15;;;1.50;99.90;;;0.76;100.00;99028.59;5187293;28;20073;-52
2023/01/18 08:54:20;;;;;;;15.25;6.65;;;1.30;99.90;;;0.70;100.00;99031.75;5187147;28;20460;-52
2023/01/18 08:56:54;;;;;;;18.75;7.10;;;1.20;99.90;;;0.64;100.00;99031.47;5187102;28;20056;-52
2023/01/18 08:59:26;;;;;;;16.08;6.85;;;1.10;99.90;;;0.61;100.00;99033.03;5186817;28;20038;-52
2023/01/18 09:04:54;;;;;;;15.05;7.32;;;1.00;99.90;;;0.61;100.00;99033.03;5168613;28;20051;-85
2023/01/18 09:07:26;;;;;;;14.43;6.55;;;1.00;99.90;;;0.65;100.00;99035.81;5168775;28;20042;-85
2023/01/18 09:09:58;;;;;;;21.42;9.68;;;1.10;99.90;;;0.72;100.00;99042.09;5151911;28;20061;-83
2023/01/18 09:12:33;;;;;;;17.83;8.30;;;1.10;99.90;;;0.79;100.00;99049.28;5165267;28;20053;-85
2023/01/18 09:15:09;;;;;;;17.48;8.23;;;1.20;99.90;;;0.88;100.00;99051.38;5147535;28;20070;-83
2023/01/18 09:17:41;;;;;;;18.83;8.30;;;1.20;99.90;;;0.91;100.00;99051.47;5148362;28;20115;-84
2023/01/18 09:20:13;;;;;;;18.13;7.95;;;1.30;99.90;;;0.95;100.00;99059.41;5131887;28;20053;-85
2023/01/18 09:22:46;;;;;;;19.30;8.18;;;1.30;99.90;;;0.99;100.00;99060.44;5146169;28;20054;-82
2023/01/18 09:25:19;;;;;;;28.23;12.57;;;1.40;99.90;;;1.01;100.00;99063.94;5129561;28;20050;-83
2023/01/18 09:27:52;;;;;;;24.55;11.10;;;1.40;99.90;;;1.03;100.00;99064.88;5128238;29;20047;-83
2023/01/18 09:30:24;;;;;;;20.48;8.77;;;1.40;99.90;;;1.07;100.00;99070.22;5144221;28;20062;-84
2023/01/18 09:32:57;;;;;;;15.73;6.70;;;1.50;99.90;;;1.27;100.00;99068.53;5144367;28;20054;-82
2023/01/18 09:35:29;;;;;;;17.48;8.18;;;1.70;99.90;;;1.43;100.00;99089.72;5142260;28;20047;-85
2023/01/18 09:38:01;;;;;;;22.42;9.73;;;1.80;99.90;;;1.44;100.00;99083.81;5089834;28;20047;-83
2023/01/18 09:40:43;;;;;;;23.38;8.68;;;1.90;99.90;;;1.44;100.00;99083.81;5131424;28;20042;-86
2023/01/18 09:43:24;;;;;;;19.30;8.25;;;1.90;99.90;;;1.47;100.00;99092.50;5147817;28;20105;-83
2023/01/18 09:45:56;;;;;;;17.80;8.00;;;1.90;99.90;;;1.53;100.00;99089.31;5147778;28;20066;-83
2023/01/18 09:48:31;;;;;;;22.00;8.10;;;1.90;99.90;;;1.57;100.00;99086.09;5131180;28;20494;-84
2023/01/18 09:51:09;;;;;;;20.58;8.52;;;2.00;99.90;;;1.59;100.00;99093.03;5147119;28;20105;-84
2023/01/18 09:53:58;;;;;;;23.35;8.65;;;2.00;99.90;;;1.62;100.00;99094.84;5145832;28;20042;-85
2023/01/18 09:56:36;;;;;;;22.77;8.43;;;2.00;99.90;;;1.70;100.00;99100.34;5142649;28;20047;-85
2023/01/18 09:59:21;;;;;;;25.70;9.55;;;2.00;99.90;;;1.83;100.00;99103.50;5127964;28;20062;-85
2023/01/18 10:01:53;;;;;;;21.20;8.95;;;2.20;99.90;;;1.90;100.00;99102.06;5147332;28;20138;-82
2023/01/18 10:04:35;;;;;;;21.55;8.15;;;2.20;99.90;;;2.03;100.00;99111.16;5140697;28;20417;-83
2023/01/18 10:07:13;;;;;;;18.58;7.65;;;2.30;99.90;;;2.12;100.00;99107.25;5143217;28;20429;-82
2023/01/18 10:09:49;;;;;;;20.85;7.75;;;2.40;99.90;;;2.25;100.00;99111.22;5142925;28;20047;-84
2023/01/18 10:12:31;;;;;;;18.33;7.57;;;2.50;99.90;;;2.37;100.00;99109.16;5127218;28;20051;-82
2023/01/18 10:15:10;;;;;;;17.58;7.45;;;2.60;99.90;;;2.46;100.00;99111.19;5129516;29;20502;-82
2023/01/18 10:17:44;;;;;;;18.45;7.13;;;2.70;99.90;;;2.54;100.00;99116.63;5143856;28;20443;-82
2023/01/18 10:20:21;;;;;;;23.55;9.90;;;2.70;99.90;;;2.56;100.00;99115.03;5143609;28;20047;-83
2023/01/18 10:22:58;;;;;;;19.00;8.60;;;2.80;99.90;;;2.55;100.00;99111.56;5143018;28;20066;-82
2023/01/18 10:25:35;;;;;;;23.05;10.20;;;2.80;99.90;;;2.60;100.00;99117.75;5128059;28;20449;-83
2023/01/18 10:28:25;;;;;;;18.40;7.63;;;2.80;99.90;;;2.73;100.00;99121.69;5128466;28;20043;-83
2023/01/18 10:31:14;;;;;;;23.25;9.07;;;3.00;99.90;;;2.80;100.00;99118.53;5143395;28;20469;-83
2023/01/18 10:33:47;;;;;;;19.48;8.60;;;3.00;99.90;;;2.82;100.00;99119.50;5142839;28;20039;-82
2023/01/18 10:36:24;;;;;;;20.10;8.50;;;3.10;99.90;;;2.87;100.00;99123.13;5143332;28;20395;-82
2023/01/18 10:38:57;;;;;;;22.55;8.75;;;3.10;99.90;;;2.94;100.00;99119.97;5143031;28;20039;-82
2023/01/18 10:41:35;;;;;;;17.95;8.38;;;3.20;99.90;;;2.92;100.00;99116.44;5143822;28;20062;-82
2023/01/18 10:44:08;;;;;;;19.60;8.82;;;3.20;99.90;;;2.93;100.00;99122.47;5128708;28;20044;-83
2023/01/18 10:46:41;;;;;;;19.50;8.82;;;3.20;99.90;;;2.96;100.00;99123.47;5128237;28;20043;-83
2023/01/18 10:49:36;;;;;;;20.55;8.32;;;3.30;99.90;;;2.99;100.00;99118.41;5142692;28;20086;-85
2023/01/18 10:52:26;;;;;;;35.70;12.75;;;3.30;99.90;;;3.01;100.00;99130.50;5143466;28;20430;-84
2023/01/18 10:55:00;;;;;;;22.35;9.00;;;3.30;99.90;;;3.08;100.00;99123.06;5142886;28;20079;-86
2023/01/18 10:57:42;;;;;;;22.92;9.20;;;3.30;99.90;;;3.18;100.00;99129.41;5142994;28;20137;-83
2023/01/18 11:00:26;;;;;;;21.35;8.73;;;3.40;99.90;;;3.29;100.00;99141.00;5129168;28;20192;-84
2023/01/18 11:03:02;;;;;;;21.42;9.05;;;3.50;99.90;;;3.35;100.00;99130.94;5160692;28;20074;-85
2023/01/18 11:05:38;;;;;;;20.70;8.32;;;3.60;99.90;;;3.40;100.00;99142.28;5147553;28;20049;-85
2023/01/18 11:08:23;;;;;;;18.23;7.65;;;3.60;99.90;;;3.47;100.00;99133.97;5152123;28;20057;-84
2023/01/18 11:11:00;;;;;;;20.33;8.00;;;3.70;99.90;;;3.51;100.00;99133.22;5152967;28;20127;-86
2023/01/18 11:13:42;;;;;;;15.65;7.63;;;3.70;99.90;;;3.64;100.00;99128.53;5138071;28;20367;-80
2023/01/18 11:16:17;;;;;;;16.77;7.53;;;3.80;99.90;;;3.78;100.00;99135.03;5159474;28;20053;-83
2023/01/18 11:19:00;;;;;;;18.15;7.88;;;3.90;99.90;;;3.96;100.00;99130.53;5142580;28;20107;-85
2023/01/18 11:21:45;;;;;;;14.95;7.13;;;4.10;99.90;;;4.17;100.00;99147.53;5134161;28;20045;-84